FR-0039 weather

Centre Hospitalier Heliport
Semur-En-Auxois, Bourgogne-Franche-Comté, France

Public forecast

Using degrees Celsius for public forecast. Weather courtesy of forecast.io.

Closest aviation weather report (METAR) to Centre Hospitalier Heliport

Closest report is Dijon-Bourgogne Airport, 33.2 nm (61.5 km) ESE. Retrieved 2020/04/08 19:00 UTC (7 minutes ago):

LFSD 081900Z AUTO 00000KT CAVOK 15/05 Q1022

Closest aviation forecast (TAF) to Centre Hospitalier Heliport

Forecast is more than 12 hours old.

Closest forecast is Dijon-Bourgogne Airport, 33.2 nm (61.5 km) ESE. Retrieved 2015/06/01 00:11 UTC (5 years ago):

TAF LFSD 010600Z 0100/0124 CNL